Latest Coastal Weather Observations for Flinders Island Airport

IDT60701

Issued at 8:41 pm EST Wednesday 5 August 2015 (issued every 10 minutes, with the page automatically refreshed every 10 minutes)

About coastal observations | Map of coastal stations | Coastal observations for TAS | Marine services | Other Formats
Station Details ID: 099005 Name: FLINDERS ISLAND AIRPORT Lat: -40.09 Lon: 148.00 Height: 9.0 m
Data from the previous 72 hours. | See also: Recent months at Flinders Island Airport
Date/Time
EST
Temp

°C
Wind Pressure Rain
since 9am
mm
Weather Cloud Vis
km
Sea
Height
m
Swell
Dir
 
Speed
knots
Gust
knots
hPa Trend Height
m
Period
s
Dir
05/08:30pm 8.1 WSW 27 33 1007.5 - 0.0 - Partly cloudy 10 - - - -
05/08:00pm 8.1 WSW 27 34 1007.5 - 0.0 - - 10 - - - -
05/07:30pm 8.5 WSW 29 37 1007.2 - 0.0 - Partly cloudy 10 - - - -
05/07:28pm 8.4 WSW 29 37 1007.3 - 0.0 - Partly cloudy 10 - - - -
05/07:02pm 8.1 W 20 30 1007.2 - 0.0 - Partly cloudy 10 - - - -
05/07:00pm 7.9 WSW 19 24 1007.3 - 0.0 - Partly cloudy 10 - - - -
05/06:30pm 8.4 WSW 26 35 1006.9 - 0.0 - Partly cloudy 10 - - - -
05/06:00pm 8.3 WSW 25 32 1006.9 - 0.0 - Mostly clear 10 - - - -
05/05:30pm 8.2 WSW 26 31 1006.7 - 0.0 - Partly cloudy 10 - - - -
05/05:00pm 7.5 W 23 30 1006.5 - 0.0 - - 10 - - - -
05/04:30pm 8.6 WSW 25 34 1006.7 - 0.0 - Partly cloudy 10 - - - -
05/04:00pm 8.7 WSW 26 32 1006.5 - 0.0 - Partly cloudy 10 - - - -
05/03:30pm 9.1 WSW 27 35 1006.3 - 0.0 - Partly cloudy 10 - - - -
05/03:00pm 9.1 WSW 25 29 1006.1 - 0.0 - Mostly clear 10 - - - -
05/02:30pm 8.4 WSW 25 31 1006.2 - 0.0 - Partly cloudy 10 - - - -
05/02:00pm 9.3 W 26 31 1006.1 - 0.0 - Partly cloudy 10 - - - -
05/01:30pm 9.2 WSW 25 33 1006.0 - 0.0 - - 10 - - - -
05/01:00pm 9.2 WSW 26 32 1006.0 - 0.0 - Partly cloudy 10 - - - -
05/12:30pm 8.9 WSW 22 28 1006.3 - 0.0 - Partly cloudy 10 - - - -
05/12:00pm 8.6 WSW 24 28 1006.7 - 0.0 - - 10 - - - -
05/11:30am 8.5 WSW 23 28 1007.0 - 0.0 - Partly cloudy 10 - - - -
05/11:00am 8.4 WSW 23 30 1007.1 - 0.0 - Partly cloudy 10 - - - -
05/10:30am 8.4 WSW 25 30 1006.8 - 0.0 - Partly cloudy 10 - - - -
05/10:00am 8.1 WSW 22 29 1006.7 - 0.0 - Partly cloudy 10 - - - -
05/09:40am 8.1 WSW 21 31 1006.4 - 0.0 - Partly cloudy 10 - - - -
05/09:30am 7.9 WSW 23 28 1006.4 - 0.0 - Partly cloudy 10 - - - -
05/09:00am 7.6 WSW 23 28 1006.2 - 9.2 - Mostly clear 10 - - - -
05/08:30am 7.4 WSW 23 30 1005.8 - 9.2 - - 10 - - - -
05/08:00am 7.3 SW 22 30 1005.4 - 9.2 - - 10 - - - -
05/07:30am 7.3 SW 27 34 1005.0 - 9.2 - Partly cloudy 10 - - - -
05/07:00am 7.6 SW 24 31 1004.4 - 9.2 - Partly cloudy 10 - - - -
05/06:30am 7.6 WSW 27 33 1003.9 - 9.2 - Partly cloudy 10 - - - -
05/06:00am 7.7 WSW 26 34 1003.8 - 9.2 - Mostly cloudy 10 - - - -
05/05:30am 8.0 WSW 26 32 1003.5 - 9.2 - Partly cloudy 10 - - - -
05/05:00am 8.4 WSW 27 32 1002.9 - 9.2 - Partly cloudy 10 - - - -
05/04:39am 8.6 WSW 29 39 1002.4 - 9.2 - Partly cloudy 10 - - - -
05/04:30am 8.7 WSW 30 39 1002.3 - 9.2 - Partly cloudy 10 - - - -
05/04:00am 9.2 WSW 29 34 1002.1 - 9.2 - Partly cloudy 10 - - - -
05/03:30am 9.4 W 29 36 1002.0 - 9.2 - Partly cloudy 10 - - - -
05/03:09am 9.1 W 25 33 1002.2 - 9.2 - Partly cloudy 10 - - - -
05/03:00am 8.7 W 28 34 1002.2 - 9.2 - Cloudy 6 - - - -
05/02:56am 8.8 W 26 34 1002.2 - 9.2 - Partly cloudy 5 - - - -
05/02:53am 9.1 W 23 33 1002.4 - 9.2 - Partly cloudy 6 - - - -
05/02:30am 9.0 W 23 31 1002.4 - 9.2 - Partly cloudy 10 - - - -
05/02:00am 9.2 WSW 29 35 1002.9 - 9.2 - Partly cloudy 10 - - - -
05/01:54am 8.9 WSW 29 39 1002.9 - 9.2 - Partly cloudy 10 - - - -
05/01:48am 8.8 WSW 31 39 1002.9 - 9.2 - Partly cloudy 10 - - - -
05/01:42am 8.5 W 29 39 1002.9 - 9.0 - Partly cloudy 6 - - - -
05/01:37am 8.5 W 23 38 1003.0 - 9.0 - Partly cloudy 7 - - - -
05/01:35am 8.8 W 21 33 1003.1 - 9.0 - Partly cloudy 9 - - - -
05/01:30am 8.6 W 21 27 1003.1 - 9.0 - Partly cloudy 10 - - - -
05/01:20am 8.0 W 21 29 1003.1 - 9.0 - Partly cloudy 8 - - - -
05/01:11am 7.7 W 30 45 1003.2 - 8.8 - Partly cloudy 6 - - - -
05/01:00am 8.2 W 29 43 1003.4 - 8.6 - Partly cloudy 3 - - - -
05/12:56am 8.5 WNW 30 43 1003.2 - 8.2 - Partly cloudy 3 - - - -
05/12:53am 9.4 WNW 28 43 1003.3 - 8.0 - Partly cloudy 4 - - - -
05/12:51am 9.5 NW 27 36 1003.1 - 7.6 - Partly cloudy 5 - - - -
05/12:50am 9.5 NW 27 36 1003.1 - 7.4 - Partly cloudy 5 - - - -
05/12:46am 9.5 NW 26 36 1002.8 - 6.8 - Partly cloudy 8 - - - -
05/12:30am 9.5 NW 26 35 1003.2 - 6.8 - Partly cloudy 9 - - - -
05/12:10am 8.9 NW 28 41 1004.0 - 6.6 - Partly cloudy 5 - - - -
05/12:00am 9.2 NW 30 43 1004.1 - 6.0 Recent precip. Cloudy 9 - - - -
 
Date/Time
EST
Temp

°C
Wind Pressure Rain
since 9am
mm
Weather Cloud Vis
km
Sea
Height
m
Swell
Dir
 
Speed
knots
Gust
knots
hPa Trend Height
m
Period
s
Dir
04/11:59pm 9.3 NW 29 43 1004.1 - 6.0 - Partly cloudy 8 - - - -
04/11:58pm 9.3 WNW 29 43 1004.1 - 6.0 - Partly cloudy 8 - - - -
04/11:51pm 9.3 WNW 23 33 1004.1 - 6.0 - Partly cloudy 7 - - - -
04/11:38pm 9.1 NW 24 31 1004.3 - 5.8 - Partly cloudy 10 - - - -
04/11:30pm 9.1 NW 26 34 1004.7 - 5.8 - Partly cloudy 7 - - - -
04/11:12pm 8.9 NW 29 41 1004.9 - 4.4 - Partly cloudy 4 - - - -
04/11:11pm 8.9 NW 29 41 1004.9 - 4.4 - Partly cloudy 4 - - - -
04/11:08pm 9.0 NW 27 41 1004.8 - 4.2 - Partly cloudy 5 - - - -
04/11:05pm 9.0 NW 27 35 1004.9 - 3.8 - Partly cloudy 5 - - - -
04/11:04pm 9.0 NW 27 35 1004.8 - 3.8 - Partly cloudy 6 - - - -
04/11:00pm 9.2 NW 27 35 1004.8 - 3.6 - Partly cloudy 8 - - - -
04/10:51pm 9.1 NW 25 35 1004.9 - 3.6 - Partly cloudy 5 - - - -
04/10:41pm 9.2 NW 28 42 1005.3 - 3.2 - Partly cloudy 9 - - - -
04/10:30pm 9.2 WNW 22 33 1005.5 - 3.2 - Partly cloudy 5 - - - -
04/10:28pm 8.9 NW 22 34 1005.8 - 3.2 - Partly cloudy 4 - - - -
04/10:27pm 8.9 NW 21 34 1005.6 - 3.2 - Partly cloudy 4 - - - -
04/10:21pm 9.0 NW 23 34 1005.8 - 2.4 - Partly cloudy 4 - - - -
04/10:15pm 9.2 NW 24 34 1005.9 - 1.8 - Partly cloudy 5 - - - -
04/10:02pm 9.5 NW 24 34 1006.0 - 1.6 - Partly cloudy 8 - - - -
04/10:00pm 9.5 NW 25 34 1006.0 - 1.6 - Partly cloudy 8 - - - -
04/09:49pm 9.6 NW 23 34 1006.6 - 1.4 - Partly cloudy 9 - - - -
04/09:48pm 9.6 NW 23 34 1006.6 - 1.4 - Partly cloudy 8 - - - -
04/09:39pm 9.6 WNW 20 27 1006.8 - 1.4 - Partly cloudy 5 - - - -
04/09:37pm 9.5 WNW 20 27 1006.9 - 1.4 - Partly cloudy 6 - - - -
04/09:36pm 9.4 WNW 20 28 1007.0 - 1.4 - Partly cloudy 6 - - - -
04/09:33pm 9.4 WNW 21 31 1007.1 - 1.4 - Partly cloudy 7 - - - -
04/09:30pm 9.5 WNW 23 31 1007.2 - 1.4 - Partly cloudy 9 - - - -
04/09:19pm 9.1 NW 25 33 1007.5 - 1.2 - Partly cloudy 9 - - - -
04/09:06pm 9.4 NW 25 39 1007.7 - 1.2 - Partly cloudy 5 - - - -
04/09:05pm 9.4 NW 25 39 1007.7 - 1.2 - Partly cloudy 5 - - - -
04/09:01pm 9.5 NW 24 34 1007.5 - 1.2 - Partly cloudy 5 - - - -
04/09:00pm 9.6 NW 24 34 1007.6 - 1.2 Rain Cloudy 6 - - - -
04/08:51pm 9.7 NW 24 33 1007.5 - 1.0 - Partly cloudy 8 - - - -
04/08:31pm 9.5 NW 26 38 1007.9 - 1.0 - Partly cloudy 10 - - - -
04/08:30pm 9.6 NW 26 35 1007.9 - 1.0 - Partly cloudy 10 - - - -
04/08:22pm 9.5 NW 25 32 1007.9 - 1.0 - Partly cloudy 10 - - - -
04/08:11pm 9.5 WNW 26 37 1008.1 - 1.0 - Partly cloudy 10 - - - -
04/08:04pm 9.4 WNW 24 31 1008.1 - 1.0 - Partly cloudy 10 - - - -
04/08:00pm 9.4 WNW 25 32 1008.3 - 1.0 - Partly cloudy 9 - - - -
04/07:31pm 9.4 NW 24 34 1008.8 - 0.8 - Partly cloudy 9 - - - -
04/07:30pm 9.4 NW 25 34 1008.9 - 0.8 - Partly cloudy 10 - - - -
04/07:08pm 9.1 WNW 23 33 1009.3 - 0.6 - Partly cloudy 7 - - - -
04/07:00pm 9.3 WNW 25 33 1009.5 - 0.6 - Partly cloudy 9 - - - -
04/06:59pm 9.3 WNW 25 33 1009.5 - 0.6 - Partly cloudy 10 - - - -
04/06:49pm 9.3 WNW 25 34 1009.6 - 0.6 - Partly cloudy 8 - - - -
04/06:30pm 9.5 WNW 23 36 1009.8 - 0.4 - Partly cloudy 10 - - - -
04/06:08pm 9.9 WNW 22 32 1009.9 - 0.4 - Partly cloudy 10 - - - -
04/06:00pm 9.8 WNW 23 32 1010.1 - 0.4 - Partly cloudy 10 - - - -
04/05:46pm 9.9 WNW 21 37 1010.1 - 0.4 - Partly cloudy 10 - - - -
04/05:43pm 9.8 WNW 21 30 1010.1 - 0.4 - Partly cloudy 10 - - - -
04/05:33pm 9.9 WNW 22 32 1010.3 - 0.4 - Partly cloudy 10 - - - -
04/05:30pm 9.8 WNW 23 34 1010.4 - 0.4 - Partly cloudy 10 - - - -
04/05:00pm 10.1 WNW 22 33 1010.6 - 0.4 - Partly cloudy 10 - - - -
04/04:33pm 10.2 WNW 20 30 1011.2 - 0.4 - Partly cloudy 10 - - - -
04/04:30pm 10.3 WNW 20 28 1011.3 - 0.4 - Partly cloudy 10 - - - -
04/04:00pm 10.5 WNW 20 28 1011.8 - 0.4 - Partly cloudy 10 - - - -
04/03:37pm 10.5 WNW 22 32 1012.1 - 0.4 - Partly cloudy 10 - - - -
04/03:30pm 10.2 WNW 23 30 1012.2 - 0.4 - Partly cloudy 10 - - - -
04/03:26pm 10.1 WNW 20 30 1012.3 - 0.4 - Partly cloudy 10 - - - -
04/03:00pm 10.3 W 22 29 1012.6 - 0.4 - Cloudy 10 - - - -
04/02:30pm 10.3 WNW 24 30 1012.9 - 0.4 - Partly cloudy 10 - - - -
04/02:00pm 10.2 WNW 23 31 1013.5 - 0.4 - Partly cloudy 10 - - - -
04/01:30pm 10.4 W 21 27 1014.0 - 0.4 - Partly cloudy 10 - - - -
04/01:00pm 10.3 W 19 28 1014.4 - 0.4 - Partly cloudy 10 - - - -
04/12:30pm 10.6 W 21 28 1015.2 - 0.4 - Partly cloudy 10 - - - -
04/12:00pm 9.5 W 22 28 1015.9 - 0.4 - Cloudy 10 - - - -
04/11:52am 10.3 W 19 27 1016.1 - 0.4 - Partly cloudy 10 - - - -
04/11:37am 8.6 W 20 31 1016.6 - 0.4 - Partly cloudy 5 - - - -
04/11:31am 10.3 WNW 18 31 1016.6 - 0.4 - Partly cloudy 10 - - - -
04/11:30am 10.2 WNW 17 22 1016.6 - 0.4 - Partly cloudy 10 - - - -
04/11:00am 8.1 W 19 30 1017.2 - 0.4 - Partly cloudy 6 - - - -
04/10:53am 8.8 W 16 30 1017.3 - 0.0 - Partly cloudy 10 - - - -
04/10:30am 9.3 W 21 30 1017.6 - 0.0 - Partly cloudy 10 - - - -
04/10:20am 9.6 W 18 28 1017.5 - 0.0 - Partly cloudy 10 - - - -
04/10:00am 8.8 W 18 23 1017.7 - 0.0 - Partly cloudy 10 - - - -
04/09:30am 8.5 W 17 25 1017.8 - 0.0 - Partly cloudy 10 - - - -
04/09:00am 8.6 W 20 26 1017.9 - 0.0 - Mostly clear 10 - - - -
04/08:30am 7.7 W 16 19 1018.3 - 0.0 - Partly cloudy 10 - - - -
04/08:13am 8.6 W 16 28 1018.3 - 0.0 - Partly cloudy 10 - - - -
04/08:00am 8.3 W 14 18 1018.5 - 0.0 - Partly cloudy 10 - - - -
04/07:30am 7.6 W 15 20 1018.5 - 0.0 - Partly cloudy 10 - - - -
04/07:00am 8.1 WSW 18 22 1018.4 - 0.0 - Partly cloudy 10 - - - -
04/06:30am 8.0 W 17 20 1018.3 - 0.0 - Partly cloudy 10 - - - -
04/06:00am 7.9 WSW 19 24 1018.2 - 0.0 - Cloudy 10 - - - -
04/05:30am 7.7 WSW 17 21 1018.2 - 0.0 - Partly cloudy 10 - - - -
04/05:00am 7.5 W 17 21 1018.2 - 0.0 - Partly cloudy 10 - - - -
04/04:30am 7.5 WSW 18 22 1018.3 - 0.0 - Partly cloudy 10 - - - -
04/04:00am 7.4 WSW 17 21 1018.4 - 0.0 - Partly cloudy 10 - - - -
04/03:30am 7.6 WSW 19 22 1018.5 - 0.0 - Partly cloudy 10 - - - -
04/03:00am 7.4 WSW 17 20 1018.6 - 0.0 - Mostly clear 10 - - - -
04/02:30am 7.4 WSW 16 21 1018.7 - 0.0 - - 10 - - - -
04/02:00am 7.3 WSW 18 23 1018.8 - 0.0 - - 10 - - - -
04/01:30am 7.6 SW 18 22 1018.8 - 0.0 - Partly cloudy 10 - - - -
04/01:00am 7.7 SW 18 23 1018.7 - 0.0 - Partly cloudy 10 - - - -
04/12:30am 7.7 SW 17 21 1019.0 - 0.0 - Partly cloudy 10 - - - -
04/12:00am 7.8 SW 16 19 1019.1 - 0.0 - Mostly clear 10 - - - -
 
Date/Time
EST
Temp

°C
Wind Pressure Rain
since 9am
mm
Weather Cloud Vis
km
Sea
Height
m
Swell
Dir
 
Speed
knots
Gust
knots
hPa Trend Height
m
Period
s
Dir
03/11:30pm 7.8 SW 18 22 1018.9 - 0.0 - Partly cloudy 10 - - - -
03/11:00pm 7.7 SW 20 25 1018.7 - 0.0 - Partly cloudy 10 - - - -
03/10:30pm 7.9 SW 20 26 1018.8 - 0.0 - Partly cloudy 10 - - - -
03/10:00pm 7.8 SW 22 27 1018.8 - 0.0 - Partly cloudy 10 - - - -
03/09:30pm 7.7 WSW 20 26 1018.5 - 0.0 - Partly cloudy 10 - - - -
03/09:00pm 7.8 WSW 21 26 1018.2 - 0.0 - Mostly clear 10 - - - -
03/08:30pm 7.6 WSW 23 26 1017.9 - 0.0 - Partly cloudy 10 - - - -
03/08:00pm 7.6 WSW 24 29 1017.3 - 0.0 - - 10 - - - -
03/07:30pm 7.7 WSW 27 33 1016.8 - 0.0 - - 10 - - - -
03/07:00pm 7.6 WSW 26 33 1016.2 - 0.0 - - 10 - - - -
03/06:30pm 7.8 WSW 26 31 1015.8 - 0.0 - - 10 - - - -
03/06:00pm 7.9 WSW 28 36 1014.9 - 0.0 - Mostly clear 10 - - - -
03/05:30pm 7.8 WSW 29 35 1014.4 - 0.0 - Partly cloudy 10 - - - -
03/05:00pm 8.1 WSW 30 38 1013.6 - 0.0 - - 10 - - - -
03/04:30pm 8.1 WSW 32 41 1012.7 - 0.0 - - 10 - - - -
03/04:00pm 8.4 WSW 31 38 1012.5 - 0.0 - Partly cloudy 10 - - - -
03/03:50pm 8.3 WSW 30 40 1012.2 - 0.0 - Partly cloudy 10 - - - -
03/03:30pm 8.3 WSW 31 38 1011.9 - 0.0 - Partly cloudy 10 - - - -
03/03:21pm 8.5 WSW 31 41 1011.9 - 0.0 - Partly cloudy 10 - - - -
03/03:00pm 8.4 WSW 30 38 1011.4 - 0.0 - Mostly clear 10 - - - -
03/02:30pm 8.5 WSW 31 39 1011.1 - 0.0 - Partly cloudy 10 - - - -
03/02:00pm 8.3 WSW 32 43 1010.6 - 0.0 - Partly cloudy 10 - - - -
03/01:57pm 8.0 WSW 33 43 1010.5 - 0.0 - Partly cloudy 10 - - - -
03/01:30pm 8.3 WSW 33 42 1010.2 - 0.0 - Partly cloudy 10 - - - -
03/01:03pm 8.3 WSW 30 40 1010.3 - 0.0 - Partly cloudy 10 - - - -
03/01:00pm 7.6 WSW 31 40 1010.1 - 0.0 - Partly cloudy 10 - - - -
03/12:31pm 8.3 WSW 32 42 1009.9 - 0.0 - Partly cloudy 10 - - - -
03/12:30pm 8.3 WSW 33 42 1009.9 - 0.0 - Partly cloudy 10 - - - -
03/12:00pm 7.9 WSW 32 40 1009.6 - 0.0 - Partly cloudy 10 - - - -
03/11:30am 7.6 WSW 31 39 1009.1 - 0.0 - Partly cloudy 10 - - - -
03/11:01am 7.6 WSW 30 40 1009.0 - 0.0 - Partly cloudy 10 - - - -
03/11:00am 7.7 WSW 31 40 1009.0 - 0.0 - Partly cloudy 10 - - - -
03/10:30am 7.6 WSW 29 36 1008.5 - 0.0 - Partly cloudy 10 - - - -
03/10:03am 7.3 WSW 32 42 1007.9 - 0.0 - Partly cloudy 10 - - - -
03/10:00am 7.2 WSW 34 42 1007.7 - 0.0 - Partly cloudy 10 - - - -
03/09:30am 6.8 WSW 29 39 1007.2 - 0.0 - Partly cloudy 10 - - - -
03/09:01am 6.6 WSW 28 38 1006.9 - 0.0 - Partly cloudy 10 - - - -
03/09:00am 6.6 WSW 28 35 1006.9 - 5.2 - Partly cloudy 10 - - - -
03/08:37am 6.0 SW 23 33 1006.7 - 5.2 - Partly cloudy 10 - - - -
03/08:30am 6.1 SW 26 33 1006.5 - 5.2 - Partly cloudy 10 - - - -
03/08:00am 6.5 WSW 28 38 1005.7 - 5.2 - Partly cloudy 10 - - - -
03/07:32am 5.7 WSW 33 43 1005.4 - 5.2 - Partly cloudy 9 - - - -
03/07:30am 5.4 WSW 34 43 1005.3 - 5.2 - Partly cloudy 10 - - - -
03/07:00am 6.6 WSW 36 46 1004.3 - 5.2 - Partly cloudy 10 - - - -
03/06:53am 6.3 WSW 34 45 1004.2 - 5.2 - Partly cloudy 10 - - - -
03/06:30am 6.3 W 32 41 1003.8 - 5.2 - Partly cloudy 10 - - - -
03/06:24am 5.9 W 30 41 1003.6 - 5.2 - Partly cloudy 10 - - - -
03/06:14am 5.8 WSW 31 40 1003.6 - 5.2 - Partly cloudy 10 - - - -
03/06:00am 5.3 WSW 37 55 1003.5 - 5.2 Rain Cloudy 2 - - - -
03/05:57am 4.8 WSW 36 55 1003.4 - 5.2 - Partly cloudy 3 - - - -
03/05:55am 4.9 WSW 35 55 1003.5 - 5.2 - Partly cloudy 4 - - - -
03/05:53am 5.8 WSW 32 55 1003.0 - 5.0 - Partly cloudy 10 - - - -
03/05:52am 6.7 WSW 30 55 1003.0 - 5.0 - Partly cloudy 10 - - - -
03/05:34am 6.9 WSW 32 42 1002.8 - 5.0 - Partly cloudy 10 - - - -
03/05:30am 7.1 WSW 33 42 1002.5 - 5.0 - Partly cloudy 10 - - - -
03/05:16am 7.3 WSW 35 51 1002.1 - 4.8 - Partly cloudy 10 - - - -
03/05:00am 8.0 WSW 33 41 1001.8 - 4.8 - Partly cloudy 10 - - - -
03/04:43am 7.9 W 30 40 1001.7 - 4.8 - Partly cloudy 10 - - - -
03/04:30am 7.5 W 33 41 1001.5 - 4.8 - Partly cloudy 10 - - - -
03/04:00am 6.9 WSW 35 45 1001.3 - 4.8 - Partly cloudy 7 - - - -
03/03:44am 7.3 WSW 29 41 1000.9 - 4.8 - Partly cloudy 10 - - - -
03/03:37am 7.3 WSW 29 36 1001.2 - 4.8 - Partly cloudy 10 - - - -
03/03:33am 7.0 WSW 29 36 1001.4 - 4.8 - Partly cloudy 9 - - - -
03/03:31am 6.9 WSW 29 37 1001.4 - 4.8 - Partly cloudy 8 - - - -
03/03:30am 7.1 WSW 29 37 1001.4 - 4.8 - Partly cloudy 7 - - - -
03/03:21am 6.8 W 34 44 1001.7 - 4.6 - Partly cloudy 2 - - - -
03/03:14am 6.1 W 32 43 1001.7 - 4.2 - Partly cloudy 4 - - - -
03/03:13am 6.6 W 31 43 1001.6 - 4.0 - Partly cloudy 6 - - - -
03/03:00am 7.5 WSW 29 36 1001.2 - 3.4 - Cloudy 8 - - - -
03/02:50am 7.5 WSW 28 35 1001.3 - 3.4 - Partly cloudy 10 - - - -
03/02:40am 7.1 WSW 30 40 1001.1 - 3.4 - Partly cloudy 5 - - - -
03/02:35am 7.5 WSW 32 40 1001.1 - 3.4 - Partly cloudy 5 - - - -
03/02:30am 7.4 WSW 32 41 1001.1 - 3.4 - Partly cloudy 8 - - - -
03/02:00am 7.9 W 32 46 1001.0 - 3.4 - Partly cloudy 10 - - - -
03/01:58am 8.1 W 31 46 1001.2 - 3.4 - Partly cloudy 9 - - - -
03/01:57am 8.1 W 30 46 1001.3 - 3.4 - Partly cloudy 8 - - - -
03/01:37am 8.1 WNW 24 36 1001.4 - 3.0 - Partly cloudy 5 - - - -
03/01:35am 8.0 WNW 23 33 1001.4 - 2.8 - Partly cloudy 7 - - - -
03/01:30am 8.2 WNW 24 33 1001.4 - 2.6 - Partly cloudy 10 - - - -
03/01:16am 8.0 W 27 39 1001.5 - 2.6 - Partly cloudy 10 - - - -
03/01:08am 7.8 W 27 34 1001.7 - 2.6 - Partly cloudy 10 - - - -
03/01:00am 7.5 W 26 37 1001.7 - 2.6 - Partly cloudy 6 - - - -
03/12:43am 7.8 W 30 52 1001.7 - 2.2 - Partly cloudy 5 - - - -
03/12:30am 9.9 WNW 28 39 1001.3 - 2.2 - Partly cloudy 10 - - - -
03/12:04am 8.8 WNW 24 34 1001.8 - 2.2 - Partly cloudy 10 - - - -
03/12:00am 8.6 WNW 24 34 1001.9 - 2.2 Recent precip. Cloudy 10 - - - -
 
Date/Time
EST
Temp

°C
Wind Pressure Rain
since 9am
mm
Weather Cloud Vis
km
Sea
Height
m
Swell
Dir
 
Speed
knots
Gust
knots
hPa Trend Height
m
Period
s
Dir
02/11:45pm 8.4 WNW 29 42 1002.1 - 2.0 - Partly cloudy 5 - - - -
02/11:38pm 10.2 WNW 27 37 1002.0 - 2.0 - Partly cloudy 10 - - - -
02/11:30pm 10.2 WNW 25 34 1002.1 - 2.0 - Partly cloudy 10 - - - -
02/11:13pm 9.2 WNW 22 32 1002.3 - 2.0 - Partly cloudy 10 - - - -
02/11:00pm 8.6 WNW 21 29 1002.8 - 2.0 - Partly cloudy 10 - - - -
02/10:33pm 8.3 W 26 38 1003.1 - 2.0 - Partly cloudy 10 - - - -
02/10:30pm 8.3 W 26 38 1003.2 - 2.0 - Partly cloudy 10 - - - -
02/10:27pm 8.5 W 25 38 1003.0 - 2.0 - Partly cloudy 10 - - - -
02/10:21pm 8.2 WNW 27 43 1003.5 - 2.0 - Partly cloudy 5 - - - -
02/10:16pm 7.8 WNW 25 43 1003.4 - 2.0 - Partly cloudy 5 - - - -
02/10:15pm 7.9 WNW 25 43 1003.6 - 1.8 - Partly cloudy 6 - - - -
02/10:12pm 9.1 WNW 21 36 1003.5 - 1.6 - Partly cloudy 10 - - - -
02/10:00pm 8.2 WNW 22 34 1003.6 - 1.6 - Partly cloudy 10 - - - -
02/09:59pm 8.1 WNW 23 34 1003.6 - 1.6 - Partly cloudy 9 - - - -
02/09:56pm 8.1 WNW 27 41 1003.7 - 1.6 - Partly cloudy 8 - - - -
02/09:50pm 8.2 WNW 28 41 1003.9 - 1.6 - Partly cloudy 6 - - - -
02/09:49pm 8.3 WNW 28 41 1003.8 - 1.6 - Partly cloudy 5 - - - -
02/09:48pm 8.4 WNW 27 41 1003.8 - 1.6 - Partly cloudy 6 - - - -
02/09:41pm 9.2 WNW 22 32 1003.6 - 1.6 - Partly cloudy 8 - - - -
02/09:30pm 9.6 WNW 23 30 1003.5 - 1.6 - Partly cloudy 10 - - - -
02/09:00pm 9.7 WNW 21 31 1004.2 - 1.6 - Partly cloudy 10 - - - -
02/08:55pm 9.6 WNW 21 31 1004.2 - 1.6 - Partly cloudy 10 - - - -

Other Formats:

Comma delimited format used in spreadsheet applications
http://www.bom.gov.au/fwo/IDT60701/IDT60701.94980.axf

JavaScript Object Notation format (JSON) in row-major order
http://www.bom.gov.au/fwo/IDT60701/IDT60701.94980.json